San Cristobal, Argentina
Current Conditions -  °F | °C
As of 3:00 PM on Tuesday 21 Oct 2014 (Local Time) from SAAR Reporting Station
Clear Clear  
Wind Chill: 29°   Ceiling: Unl
Heat Index: 29°   Visibility: 6mi
Dew Point: 10°   Wind: 14mph
Humidity: 30%   Direction: 20°NNE
Pressure: 30"   Gusts: NA
Location:  30.32°S, 61.23°W
Report Text: SAAR 211800Z 02012KT CAVOK 29/10 Q1016
Loading
Personal Weather Stations






























Interactive Weather Map
Tropical Storm Tracking
New forecast layout! Learn more

10-Day Weather Forecast

Advertisements
Track Severe Weather on mobile